createdAt,value
2023-01-10T00:01:51.196Z,20.83
2023-01-10T00:04:18.689Z,25.55
2023-01-10T00:06:45.951Z,18.60
2023-01-10T00:09:13.314Z,16.15
2023-01-10T00:11:58.900Z,23.15
2023-01-10T00:14:29.042Z,17.38
2023-01-10T00:16:57.424Z,28.17
2023-01-10T00:19:24.878Z,13.65
2023-01-10T00:21:52.095Z,23.27
2023-01-10T00:24:19.413Z,22.23
2023-01-10T00:26:51.151Z,24.42
2023-01-10T00:29:25.747Z,26.30
2023-01-10T00:34:20.298Z,29.25
2023-01-10T00:36:48.680Z,28.13
2023-01-10T00:39:19.230Z,21.48
2023-01-10T00:42:05.477Z,29.88
2023-01-10T00:44:32.783Z,20.33
2023-01-10T00:47:00.254Z,18.58
2023-01-10T00:49:27.516Z,17.67
2023-01-10T00:51:58.312Z,13.65
2023-01-10T00:54:26.145Z,16.92
2023-01-10T00:56:53.405Z,23.15
2023-01-10T00:59:21.008Z,24.30
2023-01-10T01:01:48.618Z,12.82
2023-01-10T01:04:16.255Z,29.58
2023-01-10T01:06:45.949Z,22.70
2023-01-10T01:09:13.659Z,17.48
2023-01-10T01:11:41.213Z,18.77
2023-01-10T01:14:08.703Z,23.60
2023-01-10T01:16:36.100Z,13.95
2023-01-10T01:19:03.947Z,18.35
2023-01-10T01:21:31.324Z,21.83
2023-01-10T01:23:58.722Z,14.70
2023-01-10T01:26:26.760Z,20.05
2023-01-10T01:28:54.134Z,29.92
2023-01-10T01:31:21.594Z,22.55
2023-01-10T01:33:48.930Z,14.75
2023-01-10T01:36:16.371Z,21.05
2023-01-10T01:38:43.798Z,12.40
2023-01-10T01:41:29.587Z,18.83
2023-01-10T01:44:07.449Z,23.00
2023-01-10T01:46:38.209Z,17.35
2023-01-10T01:49:12.907Z,16.95
2023-01-10T01:54:12.199Z,17.35
2023-01-10T01:56:53.181Z,6.53
2023-01-10T01:59:43.225Z,10.32
2023-01-10T02:02:24.849Z,16.23
2023-01-10T02:04:57.160Z,6.95
2023-01-10T02:07:28.344Z,16.27
2023-01-10T02:10:03.378Z,14.65
2023-01-10T02:12:32.267Z,11.85
2023-01-10T02:15:00.100Z,11.48
2023-01-10T02:17:27.312Z,19.45
2023-01-10T02:20:13.982Z,16.85
2023-01-10T02:23:32.248Z,17.30
2023-01-10T02:26:30.673Z,14.95
2023-01-10T02:29:18.589Z,8.52
2023-01-10T02:32:41.662Z,18.42
2023-01-10T02:35:37.551Z,26.00
2023-01-10T02:38:10.972Z,21.20
2023-01-10T02:41:00.565Z,15.57
2023-01-10T02:43:33.800Z,19.15
2023-01-10T02:46:09.300Z,14.95
2023-01-10T02:48:36.866Z,12.60
2023-01-10T02:51:11.435Z,16.38
2023-01-10T02:53:44.074Z,24.67
2023-01-10T02:56:30.015Z,19.38
2023-01-10T02:59:06.736Z,14.27
2023-01-10T03:01:58.256Z,23.15
2023-01-10T03:04:39.654Z,15.75
2023-01-10T03:07:09.677Z,22.25
2023-01-10T03:10:06.996Z,23.80
2023-01-10T03:12:51.519Z,31.60
2023-01-10T03:15:20.804Z,38.85
2023-01-10T03:17:53.988Z,21.60
2023-01-10T03:20:23.425Z,21.60
2023-01-10T03:22:53.010Z,25.92
2023-01-10T03:25:25.054Z,19.55
2023-01-10T03:27:52.436Z,12.95
2023-01-10T03:30:45.454Z,16.35
2023-01-10T03:33:16.097Z,18.40
2023-01-10T03:36:04.596Z,18.98
2023-01-10T03:38:42.427Z,13.30
2023-01-10T03:41:48.207Z,19.02
2023-01-10T03:44:54.578Z,8.82
2023-01-10T03:47:24.718Z,14.32
2023-01-10T03:49:59.929Z,10.48
2023-01-10T03:52:27.989Z,10.02
2023-01-10T03:54:55.325Z,14.82
2023-01-10T03:57:24.058Z,13.68
2023-01-10T03:59:54.788Z,15.32
2023-01-10T04:02:22.203Z,17.52
2023-01-10T04:04:49.461Z,11.23
2023-01-10T04:07:16.838Z,17.98
2023-01-10T04:09:44.092Z,24.90
2023-01-10T04:12:11.358Z,12.52
2023-01-10T04:14:38.562Z,8.88
2023-01-10T04:17:06.224Z,10.90
2023-01-10T04:19:33.605Z,16.88
2023-01-10T04:22:00.862Z,13.50
2023-01-10T04:24:28.113Z,16.77
2023-01-10T04:26:55.398Z,15.77
2023-01-10T04:29:22.754Z,10.68
2023-01-10T04:31:50.341Z,12.43
2023-01-10T04:34:20.240Z,16.88
2023-01-10T04:36:50.521Z,23.15
2023-01-10T04:39:17.930Z,14.18
2023-01-10T04:41:45.233Z,12.10
2023-01-10T04:44:12.970Z,17.23
2023-01-10T04:46:40.252Z,23.90
2023-01-10T04:49:07.687Z,11.82
2023-01-10T04:51:34.838Z,18.73
2023-01-10T04:54:02.070Z,13.05
2023-01-10T04:56:29.376Z,21.75
2023-01-10T04:58:57.134Z,8.55
2023-01-10T05:01:25.961Z,17.83
2023-01-10T05:03:55.856Z,12.43
2023-01-10T05:06:25.103Z,11.57
2023-01-10T05:08:52.606Z,12.13
2023-01-10T05:11:19.892Z,22.02
2023-01-10T05:13:48.144Z,15.85
2023-01-10T05:16:15.871Z,23.30
2023-01-10T05:18:43.146Z,11.93
2023-01-10T05:21:12.554Z,11.45
2023-01-10T05:23:40.462Z,20.15
2023-01-10T05:26:16.155Z,16.33
2023-01-10T05:28:44.546Z,11.50
2023-01-10T05:31:16.734Z,21.70
2023-01-10T05:33:45.911Z,25.55
2023-01-10T05:36:13.458Z,14.50
2023-01-10T05:38:40.802Z,17.67
2023-01-10T05:41:08.320Z,14.68
2023-01-10T05:43:35.960Z,26.73
2023-01-10T05:46:03.609Z,12.10
2023-01-10T05:48:30.964Z,13.38
2023-01-10T05:50:58.322Z,7.80
2023-01-10T05:53:25.551Z,11.50
2023-01-10T05:56:01.430Z,18.65
2023-01-10T05:58:29.878Z,13.95
2023-01-10T06:00:58.036Z,11.35
2023-01-10T06:03:26.902Z,24.88
2023-01-10T06:05:55.993Z,20.45
2023-01-10T06:08:24.310Z,16.05
2023-01-10T06:10:51.716Z,23.20
2023-01-10T06:13:19.114Z,21.33
2023-01-10T06:15:47.055Z,19.48
2023-01-10T06:18:15.199Z,26.67
2023-01-10T06:20:43.782Z,24.25
2023-01-10T06:23:11.322Z,16.73
2023-01-10T06:25:40.644Z,18.05
2023-01-10T06:28:12.936Z,22.05
2023-01-10T06:30:43.494Z,23.52
2023-01-10T06:33:12.117Z,21.85
2023-01-10T06:35:39.713Z,22.20
2023-01-10T06:38:06.985Z,24.52
2023-01-10T06:40:34.235Z,24.13
2023-01-10T06:43:01.560Z,21.67
2023-01-10T06:45:28.821Z,27.77
2023-01-10T06:47:56.193Z,21.65
2023-01-10T06:50:24.285Z,19.63
2023-01-10T06:53:03.367Z,24.88
2023-01-10T06:55:31.313Z,22.73
2023-01-10T06:58:04.671Z,25.10
2023-01-10T07:00:32.488Z,17.75
2023-01-10T07:03:01.507Z,17.55
2023-01-10T07:05:29.864Z,22.08
2023-01-10T07:07:58.967Z,20.50
2023-01-10T07:10:26.286Z,25.88
2023-01-10T07:12:57.240Z,22.88
2023-01-10T07:15:25.205Z,18.35
2023-01-10T07:17:52.478Z,26.42
2023-01-10T07:20:19.827Z,34.97
2023-01-10T07:22:57.077Z,11.65
2023-01-10T07:25:25.793Z,22.63
2023-01-10T07:27:55.612Z,20.10
2023-01-10T07:30:25.224Z,17.80
2023-01-10T07:33:01.339Z,14.68
2023-01-10T07:35:28.591Z,21.92
2023-01-10T07:37:59.684Z,12.65
2023-01-10T07:40:27.377Z,8.23
2023-01-10T07:42:58.627Z,23.20
2023-01-10T07:45:29.687Z,13.75
2023-01-10T07:48:02.003Z,10.98
2023-01-10T07:50:32.294Z,9.85
2023-01-10T07:53:00.699Z,25.48
2023-01-10T07:55:29.407Z,13.38
2023-01-10T07:57:56.812Z,10.88
2023-01-10T08:00:24.311Z,18.48
2023-01-10T08:02:55.156Z,15.10
2023-01-10T08:05:23.540Z,17.33
2023-01-10T08:07:50.880Z,32.35
2023-01-10T08:10:18.607Z,14.02
2023-01-10T08:12:48.292Z,16.17
2023-01-10T08:15:15.560Z,20.45
2023-01-10T08:17:43.284Z,15.75
2023-01-10T08:20:11.233Z,16.05
2023-01-10T08:22:38.555Z,19.75
2023-01-10T08:25:06.183Z,13.82
2023-01-10T08:27:33.566Z,18.42
2023-01-10T08:30:01.055Z,10.63
2023-01-10T08:32:28.289Z,17.83
2023-01-10T08:34:55.558Z,7.50
2023-01-10T08:37:23.427Z,14.13
2023-01-10T08:39:50.674Z,11.90
2023-01-10T08:42:18.892Z,13.52
2023-01-10T08:44:46.144Z,15.90
2023-01-10T08:47:13.549Z,11.38
2023-01-10T08:49:40.848Z,10.85
2023-01-10T08:52:08.109Z,19.58
2023-01-10T08:54:35.463Z,17.50
2023-01-10T08:57:02.754Z,12.15
2023-01-10T08:59:30.107Z,8.82
2023-01-10T09:01:58.726Z,11.18
2023-01-10T09:04:28.927Z,12.23
2023-01-10T09:06:56.810Z,7.82
2023-01-10T09:09:24.201Z,4.93
2023-01-10T09:11:51.450Z,11.10
2023-01-10T09:14:18.773Z,14.13
2023-01-10T09:16:46.472Z,8.30
2023-01-10T09:19:13.854Z,9.38
2023-01-10T09:21:41.054Z,7.20
2023-01-10T09:24:08.348Z,4.13
2023-01-10T09:26:35.790Z,2.92
2023-01-10T09:29:03.008Z,3.05
2023-01-10T09:31:30.421Z,2.38
2023-01-10T09:33:57.660Z,1.58
2023-01-10T09:36:24.829Z,2.85
2023-01-10T09:38:52.009Z,4.15
2023-01-10T09:41:34.063Z,4.45
2023-01-10T09:44:05.668Z,4.97
2023-01-10T09:46:42.071Z,4.43
2023-01-10T09:49:47.419Z,2.75
2023-01-10T09:52:24.280Z,2.10
2023-01-10T09:54:55.358Z,2.00
2023-01-10T09:57:23.565Z,0.65
2023-01-10T09:59:53.987Z,2.17
2023-01-10T10:02:21.220Z,0.40
2023-01-10T10:05:04.823Z,2.80
2023-01-10T10:07:32.166Z,1.45
2023-01-10T10:09:59.420Z,0.98
2023-01-10T10:12:41.734Z,0.43
2023-01-10T10:15:30.232Z,1.05
2023-01-10T10:18:17.409Z,0.70
2023-01-10T10:20:56.698Z,3.97
2023-01-10T10:23:52.253Z,0.10
2023-01-10T10:26:22.312Z,0.43
2023-01-10T10:29:08.245Z,0.43
2023-01-10T10:31:35.530Z,0.40
2023-01-10T10:34:23.378Z,0.08
2023-01-10T10:36:57.303Z,0.25
2023-01-10T10:39:36.385Z,1.45
2023-01-10T10:42:04.347Z,0.38
2023-01-10T10:44:59.849Z,1.55
2023-01-10T10:47:35.305Z,0.10
2023-01-10T10:50:14.429Z,1.35
2023-01-10T10:52:43.282Z,0.35
2023-01-10T10:55:23.434Z,0.10
2023-01-10T10:57:59.903Z,0.35
2023-01-10T11:00:29.679Z,1.85
2023-01-10T11:03:03.948Z,0.85
2023-01-10T11:05:40.669Z,0.17
2023-01-10T11:08:13.932Z,0.10
2023-01-10T11:10:44.191Z,0.17
2023-01-10T11:13:20.367Z,1.55
2023-01-10T11:15:49.669Z,1.38
2023-01-10T11:18:20.807Z,0.43
2023-01-10T11:21:00.634Z,1.23
2023-01-10T11:23:30.861Z,1.58
2023-01-10T11:25:58.599Z,1.02
2023-01-10T11:28:30.711Z,6.10
2023-01-10T11:30:59.815Z,0.85
2023-01-10T11:33:31.352Z,1.23
2023-01-10T11:36:05.965Z,0.28
2023-01-10T11:41:23.071Z,0.50
2023-01-10T11:43:50.339Z,2.63
2023-01-10T11:46:21.847Z,0.50
2023-01-10T11:49:08.228Z,0.20
2023-01-10T11:51:44.637Z,0.63
2023-01-10T11:54:17.738Z,1.95
2023-01-10T11:57:03.445Z,0.10
2023-01-10T11:59:30.932Z,1.13
2023-01-10T12:02:12.256Z,0.20
2023-01-10T12:04:47.114Z,1.00
2023-01-10T12:07:14.347Z,0.60
2023-01-10T12:09:47.972Z,0.50
2023-01-10T12:12:27.287Z,1.17
2023-01-10T12:14:56.762Z,1.55
2023-01-10T12:17:33.944Z,0.40
2023-01-10T12:20:03.742Z,0.17
2023-01-10T12:22:51.526Z,0.70
2023-01-10T12:25:22.979Z,0.10
2023-01-10T12:27:50.623Z,0.57
2023-01-10T12:30:33.015Z,1.65
2023-01-10T12:33:04.646Z,1.35
2023-01-10T12:35:51.122Z,0.70
2023-01-10T12:38:42.713Z,1.08
2023-01-10T12:41:33.989Z,1.30
2023-01-10T12:44:15.046Z,2.13
2023-01-10T12:47:06.563Z,2.30
2023-01-10T12:49:53.194Z,1.52
2023-01-10T12:52:43.058Z,1.52
2023-01-10T12:55:16.106Z,2.58
2023-01-10T12:57:51.636Z,4.80
2023-01-10T13:00:24.346Z,5.25
2023-01-10T13:02:54.626Z,4.68
2023-01-10T13:05:24.925Z,8.45
2023-01-10T13:08:03.581Z,18.77
2023-01-10T13:10:33.613Z,15.55
2023-01-10T13:13:29.513Z,16.23
2023-01-10T13:16:24.231Z,12.27
2023-01-10T13:19:28.052Z,16.80
2023-01-10T13:22:20.536Z,20.65
2023-01-10T13:24:59.867Z,25.33
2023-01-10T13:27:32.372Z,37.10
2023-01-10T13:30:00.457Z,34.72
2023-01-10T13:32:30.470Z,39.38
2023-01-10T13:35:16.360Z,34.38
2023-01-10T13:37:50.547Z,31.73
2023-01-10T13:40:30.435Z,25.83
2023-01-10T13:43:34.390Z,36.30
2023-01-10T13:46:17.129Z,37.03
2023-01-10T13:48:50.321Z,37.22
2023-01-10T13:51:21.843Z,41.55
2023-01-10T13:53:51.859Z,45.50
2023-01-10T13:56:48.741Z,39.08
2023-01-10T13:59:43.694Z,45.90
2023-01-10T14:02:34.000Z,48.63
2023-01-10T14:05:07.852Z,36.95
2023-01-10T14:07:50.406Z,38.72
2023-01-10T14:10:25.002Z,46.55
2023-01-10T14:15:37.007Z,45.22
2023-01-10T14:18:15.548Z,30.60
2023-01-10T14:20:43.738Z,49.42
2023-01-10T14:23:17.305Z,32.60
2023-01-10T14:25:46.424Z,53.25
2023-01-10T14:28:23.674Z,48.60
2023-01-10T14:31:07.814Z,44.75
2023-01-10T14:33:36.536Z,33.90
2023-01-10T14:36:09.898Z,47.80
2023-01-10T14:38:39.222Z,36.88
2023-01-10T14:41:21.910Z,31.98
2023-01-10T14:44:01.728Z,46.60
2023-01-10T14:46:33.179Z,41.42
2023-01-10T14:49:01.201Z,40.78
2023-01-10T14:51:30.420Z,32.45
2023-01-10T14:54:01.617Z,38.53
2023-01-10T14:56:28.845Z,34.55
2023-01-10T14:58:56.162Z,29.08
2023-01-10T15:01:30.186Z,19.92
2023-01-10T15:03:57.999Z,30.35
2023-01-10T15:06:26.174Z,31.23
2023-01-10T15:08:59.090Z,30.77
2023-01-10T15:11:27.954Z,25.75
2023-01-10T15:14:03.655Z,28.65
2023-01-10T15:16:32.304Z,30.27
2023-01-10T15:18:59.864Z,30.80
2023-01-10T15:21:27.743Z,22.90
2023-01-10T15:23:54.991Z,20.40
2023-01-10T15:26:29.435Z,22.15
2023-01-10T15:29:13.396Z,31.77
2023-01-10T15:31:41.720Z,18.33
2023-01-10T15:34:15.162Z,24.38
2023-01-10T15:37:03.056Z,21.13
2023-01-10T15:39:37.669Z,24.15
2023-01-10T15:44:45.015Z,21.70
2023-01-10T15:47:37.362Z,18.30
2023-01-10T15:50:27.376Z,16.92
2023-01-10T15:53:03.788Z,30.33
2023-01-10T15:55:50.893Z,27.38
2023-01-10T15:58:32.924Z,28.08
2023-01-10T16:01:00.783Z,30.77
2023-01-10T16:03:38.541Z,26.73
2023-01-10T16:06:12.523Z,34.80
2023-01-10T16:08:39.945Z,33.45
2023-01-10T16:11:16.696Z,23.88
2023-01-10T16:13:44.029Z,28.83
2023-01-10T16:16:18.907Z,26.23
2023-01-10T16:18:46.153Z,31.27
2023-01-10T16:21:14.506Z,38.55
2023-01-10T16:23:46.136Z,37.25
2023-01-10T16:26:14.825Z,38.05
2023-01-10T16:28:42.083Z,30.88
2023-01-10T16:31:14.440Z,32.97
2023-01-10T16:33:42.238Z,30.27
2023-01-10T16:36:16.454Z,38.50
2023-01-10T16:38:44.208Z,44.92
2023-01-10T16:41:49.040Z,33.25
2023-01-10T16:44:16.546Z,47.78
2023-01-10T16:46:43.808Z,47.20
2023-01-10T16:49:11.190Z,39.42
2023-01-10T16:51:40.276Z,39.80
2023-01-10T16:54:14.880Z,35.65
2023-01-10T16:59:10.277Z,28.77
2023-01-10T17:01:44.292Z,28.00
2023-01-10T17:04:16.037Z,34.85
2023-01-10T17:06:43.361Z,33.67
2023-01-10T17:09:37.153Z,28.92
2023-01-10T17:12:08.695Z,34.42
2023-01-10T17:14:37.391Z,29.60
2023-01-10T17:17:04.924Z,29.92
2023-01-10T17:19:32.297Z,23.83
2023-01-10T17:22:00.484Z,25.42
2023-01-10T17:24:29.770Z,9.82
2023-01-10T17:26:57.123Z,22.25
2023-01-10T17:29:24.442Z,19.05
2023-01-10T17:31:52.011Z,15.43
2023-01-10T17:34:19.358Z,16.15
2023-01-10T17:36:46.616Z,13.57
2023-01-10T17:39:13.870Z,13.20
2023-01-10T17:41:41.084Z,17.35
2023-01-10T17:44:08.337Z,17.27
2023-01-10T17:46:35.691Z,11.20
2023-01-10T17:49:03.691Z,21.75
2023-01-10T17:51:30.965Z,10.68
2023-01-10T17:53:58.450Z,13.15
2023-01-10T17:56:25.949Z,10.65
2023-01-10T17:58:53.807Z,8.77
2023-01-10T18:01:25.420Z,22.13
2023-01-10T18:03:53.501Z,16.63
2023-01-10T18:06:25.359Z,13.15
2023-01-10T18:08:53.786Z,12.40
2023-01-10T18:11:25.223Z,8.43
2023-01-10T18:13:52.836Z,8.32
2023-01-10T18:16:20.126Z,4.03
2023-01-10T18:18:47.741Z,7.15
2023-01-10T18:21:17.444Z,5.80
2023-01-10T18:23:46.902Z,3.28
2023-01-10T18:26:14.733Z,7.97
2023-01-10T18:28:44.310Z,2.00
2023-01-10T18:31:19.757Z,5.20
2023-01-10T18:33:48.344Z,3.88
2023-01-10T18:36:18.737Z,1.90
2023-01-10T18:38:46.306Z,5.20
2023-01-10T18:41:17.037Z,3.95
2023-01-10T18:43:44.670Z,4.43
2023-01-10T18:46:18.916Z,3.95
2023-01-10T18:48:47.542Z,2.58
2023-01-10T18:51:14.895Z,3.67
2023-01-10T18:53:42.816Z,5.97
2023-01-10T18:56:10.831Z,2.58
2023-01-10T18:58:40.449Z,5.45
2023-01-10T19:01:09.944Z,5.70
2023-01-10T19:03:37.868Z,3.95
2023-01-10T19:06:07.199Z,4.03
2023-01-10T19:08:36.487Z,4.25
2023-01-10T19:11:13.410Z,9.63
2023-01-10T19:13:42.459Z,7.03
2023-01-10T19:16:13.021Z,9.68
2023-01-10T19:18:40.949Z,6.45
2023-01-10T19:21:14.900Z,5.75
2023-01-10T19:23:43.160Z,2.60
2023-01-10T19:26:11.028Z,11.57
2023-01-10T19:28:38.527Z,6.18
2023-01-10T19:31:06.375Z,5.05
2023-01-10T19:33:34.811Z,7.22
2023-01-10T19:36:09.385Z,5.72
2023-01-10T19:38:37.011Z,4.32
2023-01-10T19:41:04.838Z,5.53
2023-01-10T19:43:33.851Z,8.70
2023-01-10T19:46:07.078Z,6.35
2023-01-10T19:48:38.077Z,4.88
2023-01-10T19:51:12.724Z,3.22
2023-01-10T19:56:10.509Z,3.85
2023-01-10T19:58:39.070Z,5.00
2023-01-10T20:01:15.447Z,5.18
2023-01-10T20:03:46.626Z,3.20
2023-01-10T20:06:21.071Z,2.58
2023-01-10T20:08:49.285Z,5.50
2023-01-10T20:11:18.075Z,4.85
2023-01-10T20:13:45.635Z,3.30
2023-01-10T20:16:14.935Z,5.25
2023-01-10T20:18:42.783Z,5.38
2023-01-10T20:21:12.561Z,4.95
2023-01-10T20:23:41.352Z,3.53
2023-01-10T20:26:13.706Z,3.55
2023-01-10T20:28:41.714Z,3.70
2023-01-10T20:31:12.057Z,2.35
2023-01-10T20:33:39.394Z,1.10
2023-01-10T20:36:09.365Z,4.25
2023-01-10T20:38:37.641Z,3.65
2023-01-10T20:41:07.603Z,1.73
2023-01-10T20:43:36.234Z,2.67
2023-01-10T20:46:11.027Z,2.50
2023-01-10T20:48:40.132Z,3.83
2023-01-10T20:51:10.929Z,0.98
2023-01-10T20:53:38.212Z,1.52
2023-01-10T20:56:12.836Z,3.58
2023-01-10T20:58:43.949Z,5.40
2023-01-10T21:01:16.937Z,1.73
2023-01-10T21:03:47.582Z,2.20
2023-01-10T21:06:16.335Z,1.20
2023-01-10T21:08:43.754Z,4.00
2023-01-10T21:11:13.846Z,2.42
2023-01-10T21:13:41.554Z,4.05
2023-01-10T21:16:09.751Z,4.00
2023-01-10T21:18:41.441Z,3.72
2023-01-10T21:21:08.942Z,6.32
2023-01-10T21:23:36.595Z,3.22
2023-01-10T21:26:07.164Z,5.22
2023-01-10T21:28:40.359Z,2.25
2023-01-10T21:31:10.899Z,2.40
2023-01-10T21:33:38.453Z,6.22
2023-01-10T21:36:08.794Z,5.03
2023-01-10T21:38:36.475Z,2.40
2023-01-10T21:41:14.463Z,2.53
2023-01-10T21:43:46.193Z,5.13
2023-01-10T21:46:13.596Z,6.07
2023-01-10T21:48:41.073Z,3.38
2023-01-10T21:51:08.481Z,2.95
2023-01-10T21:53:35.841Z,5.35
2023-01-10T21:56:03.196Z,2.67
2023-01-10T21:58:30.438Z,2.70
2023-01-10T22:00:59.297Z,4.70
2023-01-10T22:03:27.277Z,1.80
2023-01-10T22:05:54.689Z,6.63
2023-01-10T22:08:21.958Z,7.53
2023-01-10T22:10:49.356Z,6.57
2023-01-10T22:13:16.925Z,5.68
2023-01-10T22:15:45.452Z,5.78
2023-01-10T22:18:12.806Z,7.60
2023-01-10T22:20:44.956Z,6.15
2023-01-10T22:23:12.340Z,5.50
2023-01-10T22:25:39.625Z,3.83
2023-01-10T22:28:09.620Z,7.75
2023-01-10T22:30:36.944Z,6.47
2023-01-10T22:33:04.447Z,8.13
2023-01-10T22:35:31.803Z,6.70
2023-01-10T22:37:59.174Z,6.53
2023-01-10T22:40:26.448Z,6.22
2023-01-10T22:42:54.744Z,7.65
2023-01-10T22:45:22.108Z,2.38
2023-01-10T22:47:50.016Z,4.97
2023-01-10T22:50:18.686Z,4.45
2023-01-10T22:52:50.511Z,9.82
2023-01-10T22:55:18.596Z,7.82
2023-01-10T22:57:47.642Z,7.65
2023-01-10T23:00:15.900Z,6.82
2023-01-10T23:02:43.367Z,3.35
2023-01-10T23:05:10.642Z,7.60
2023-01-10T23:07:38.607Z,2.75
2023-01-10T23:10:17.312Z,4.60
2023-01-10T23:12:51.909Z,4.25
2023-01-10T23:15:19.356Z,4.80
2023-01-10T23:17:46.593Z,4.63
2023-01-10T23:20:13.872Z,4.47
2023-01-10T23:22:41.102Z,6.75
2023-01-10T23:25:08.653Z,2.42
2023-01-10T23:27:36.021Z,6.57
2023-01-10T23:30:03.344Z,5.30
2023-01-10T23:32:30.528Z,7.15
2023-01-10T23:34:57.705Z,5.65
2023-01-10T23:37:24.967Z,9.38
2023-01-10T23:39:52.126Z,4.28
2023-01-10T23:42:19.553Z,6.10
2023-01-10T23:44:46.917Z,8.32
2023-01-10T23:47:14.207Z,11.32
2023-01-10T23:49:41.491Z,4.47
2023-01-10T23:52:08.697Z,8.85
2023-01-10T23:54:35.931Z,2.45
2023-01-10T23:57:03.146Z,4.60
2023-01-10T23:59:30.471Z,9.20
